Norwegian Pearl — C6VG7 — position and weather

sailwx.info

Track history (hours):
 
Tides and Currents Weather Stations Pressure Air Temp Water Temp Dewpoint Dewpoint Depression Visibility Wind Speed Wind Dir Waves Ship Positions

Norwegian Pearl

Last reported at 2018-Oct-22 20:56 UTC. Time now 2018-Oct-24 04:37 UTC.
Position N 27°10' W 115°47'.

Type: Ship. MMSI: 309653000.

Date/timePositionNaut miles runAvg speedWind from/ knotsBaromVisibWave heightAir tempDewpointWater temp
2018-Oct-22 20:56N 27°10' W 115°47'18420.5
2018-Oct-22 11:59N 30°08' W 116°42'2620.5
2018-Oct-22 10:43N 30°33' W 116°49'420.6
2018-Oct-22 10:30N 30°37' W 116°51'1020.8
2018-Oct-22 10:02N 30°46' W 116°54'121.0
2018-Oct-22 10:00N 30°47' W 116°54'1021.2
2018-Oct-22 09:31N 30°57' W 116°57'1021.4
2018-Oct-22 09:03N 31°06' W 117°01'121.3
2018-Oct-22 09:00N 31°07' W 117°01'1121.6
2018-Oct-22 08:30N 31°18' W 117°04'1021.6
2018-Oct-22 08:03N 31°27' W 117°08'121.4
2018-Oct-22 08:00N 31°28' W 117°08'1121.3
2018-Oct-22 07:30N 31°39' W 117°10'1021.3
2018-Oct-22 07:03N 31°48' W 117°13'121.0
2018-Oct-22 07:01N 31°49' W 117°13'1121.1
2018-Oct-22 06:30N 31°59' W 117°17'1021.3
2018-Oct-22 06:03N 32°08' W 117°20'120.9
2018-Oct-22 06:01N 32°09' W 117°20'1121.4
2018-Oct-22 05:30N 32°20' W 117°23'919.9
2018-Oct-22 05:04N 32°28' W 117°21'121.5
2018-Oct-22 05:01N 32°29' W 117°20'1019.8
2018-Oct-22 04:30N 32°38' W 117°14'6 0.6
2018-Oct-21 17:26N 32°43' W 117°10'0 0.0
2018-Oct-21 16:56N 32°43' W 117°10'0 0.0
2018-Oct-21 16:29N 32°43' W 117°10'0 0.0
2018-Oct-21 15:59N 32°43' W 117°10'0 0.0
2018-Oct-21 15:26N 32°43' W 117°10'0 0.0
2018-Oct-21 15:02N 32°43' W 117°10'0 0.0
2018-Oct-21 14:59N 32°43' W 117°10'0 0.0
2018-Oct-21 14:02N 32°43' W 117°10'0 0.0
2018-Oct-21 13:56N 32°43' W 117°10'0 0.0
2018-Oct-21 13:28N 32°43' W 117°10'0 0.2
2018-Oct-21 13:03N 32°43' W 117°11'0 2.0
2018-Oct-21 13:00N 32°43' W 117°11'3 6.5
2018-Oct-21 12:31N 32°41' W 117°14'510.2
2018-Oct-21 12:04N 32°37' W 117°14'110.8
2018-Oct-21 12:01N 32°36' W 117°15'612.3
2018-Oct-21 11:30N 32°31' W 117°19'614.3
2018-Oct-21 11:03N 32°26' W 117°23'115.0
2018-Oct-21 11:00N 32°25' W 117°24'713.7
2018-Oct-21 10:31N 32°18' W 117°23'614.2
2018-Oct-21 10:03N 32°12' W 117°21'114.3
2018-Oct-21 10:00N 32°11' W 117°20'714.3
2018-Oct-21 09:30N 32°05' W 117°17'714.7
2018-Oct-21 09:03N 31°58' W 117°15'115.1
2018-Oct-21 09:00N 31°58' W 117°15'714.8
2018-Oct-21 08:31N 31°51' W 117°12'715.7
2018-Oct-21 08:04N 31°44' W 117°10'116.4
2018-Oct-21 08:01N 31°43' W 117°10'816.4
2018-Oct-21 07:31N 31°35' W 117°08'716.2
2018-Oct-21 07:04N 31°28' W 117°06'116.0
2018-Oct-21 07:01N 31°27' W 117°06'815.8
2018-Oct-21 06:31N 31°19' W 117°04'715.6
2018-Oct-21 06:04N 31°12' W 117°02'115.9
2018-Oct-21 06:00N 31°12' W 117°02'815.8
2018-Oct-21 05:30N 31°04' W 116°59'715.6
2018-Oct-21 05:04N 30°57' W 116°57'115.5
2018-Oct-21 05:01N 30°57' W 116°57'815.6
2018-Oct-21 04:30N 30°49' W 116°55'716.4
2018-Oct-21 04:03N 30°42' W 116°52'120.2
2018-Oct-21 04:01N 30°41' W 116°52'1020.0
2018-Oct-21 03:31N 30°31' W 116°49'3220.1
2018-Oct-21 01:56N 30°01' W 116°39'920.1
2018-Oct-21 01:30N 29°52' W 116°36'919.8
2018-Oct-21 01:03N 29°44' W 116°34'219.8
2018-Oct-21 00:59N 29°42' W 116°33'1019.8
2018-Oct-21 00:29N 29°33' W 116°31'919.8
2018-Oct-21 00:03N 29°25' W 116°28'119.1
2018-Oct-21 00:00N 29°24' W 116°28'2116.3
2018-Oct-20 22:41N 29°03' W 116°22'616.6
2018-Oct-20 22:21N 28°58' W 116°20'916.5
2018-Oct-20 21:50N 28°49' W 116°17'516.7
2018-Oct-20 21:31N 28°44' W 116°16'816.9
2018-Oct-20 21:03N 28°36' W 116°13'8816.6
2018-Oct-20 15:44N 27°12' W 115°47'1616.6
2018-Oct-20 14:45N 26°57' W 115°39'53115.3
2018-Oct-19 04:00N 22°24' W 107°18'57 1.2 330 / 251009.610.8 27.0 30.0
2018-Oct-17 05:00N 21°48' W 108°06'78615.9 350 / 211010.410.8 27.0 29.0
2018-Oct-15 03:30N 32°01' W 117°17'921.0
2018-Oct-15 03:03N 32°10' W 117°20'121.4
2018-Oct-15 03:01N 32°11' W 117°20'1121.1
2018-Oct-15 02:30N 32°21' W 117°23'919.9
2018-Oct-15 02:03N 32°30' W 117°20'121.0
2018-Oct-15 02:00N 32°31' W 117°19'918.9
2018-Oct-15 01:31N 32°39' W 117°13'4 9.6
2018-Oct-15 01:03N 32°43' W 117°13'110.7
2018-Oct-15 01:01N 32°43' W 117°12'1 2.5
2018-Oct-15 00:30N 32°43' W 117°10'0 0.0
2018-Oct-15 00:03N 32°43' W 117°10'0 0.0
2018-Oct-15 00:00N 32°43' W 117°10'0 0.0
2018-Oct-14 23:24N 32°43' W 117°10'0 0.0
2018-Oct-14 23:03N 32°43' W 117°10'0 0.0
2018-Oct-14 23:00N 32°43' W 117°10'0 0.0
2018-Oct-14 22:30N 32°43' W 117°10'0 0.0
2018-Oct-14 22:03N 32°43' W 117°10'0 0.0
2018-Oct-14 21:57N 32°43' W 117°10'0 0.0
2018-Oct-14 21:30N 32°43' W 117°10'0 0.0
2018-Oct-14 21:03N 32°43' W 117°10'0 0.0
2018-Oct-14 21:00N 32°43' W 117°10'0 0.0
2018-Oct-14 20:30N 32°43' W 117°10'0 0.0
2018-Oct-14 20:03N 32°43' W 117°10'0 0.0
2018-Oct-14 20:00N 32°43' W 117°10'0 0.0
2018-Oct-14 19:30N 32°43' W 117°10'0 0.0
2018-Oct-14 19:03N 32°43' W 117°10'0 0.0
2018-Oct-14 18:57N 32°43' W 117°10'0 0.0
2018-Oct-14 18:27N 32°43' W 117°10'0 0.0
2018-Oct-14 17:54N 32°43' W 117°10'0 0.0
2018-Oct-14 17:30N 32°43' W 117°10'0 0.0
2018-Oct-14 17:03N 32°43' W 117°10'0 0.0
2018-Oct-14 16:57N 32°43' W 117°10'0 0.0
2018-Oct-14 16:30N 32°43' W 117°10'0 0.0
2018-Oct-14 16:03N 32°43' W 117°10'0 0.0
2018-Oct-14 16:00N 32°43' W 117°10'0 0.0
2018-Oct-14 15:18N 32°43' W 117°10'0 0.0
2018-Oct-14 15:03N 32°43' W 117°10'0 0.0
2018-Oct-14 14:57N 32°43' W 117°10'0 0.0
2018-Oct-14 14:03N 32°43' W 117°10'0 0.0
2018-Oct-14 14:00N 32°43' W 117°10'0 0.0
2018-Oct-14 13:30N 32°43' W 117°10'0 0.1
2018-Oct-14 13:03N 32°43' W 117°10'0 0.1
2018-Oct-14 13:00N 32°43' W 117°10'3 5.6
2018-Oct-14 12:30N 32°42' W 117°14'511.3
2018-Oct-14 12:03N 32°37' W 117°14'0 9.0
2018-Oct-14 12:00N 32°37' W 117°14'611.6
2018-Oct-14 11:30N 32°32' W 117°18'511.2
2018-Oct-14 11:03N 32°28' W 117°21'111.1
2018-Oct-14 11:00N 32°27' W 117°22'611.6
2018-Oct-14 10:30N 32°23' W 117°26'511.2
2018-Oct-14 10:03N 32°19' W 117°29'111.7
2018-Oct-14 10:01N 32°18' W 117°30'611.1
2018-Oct-14 09:30N 32°14' W 117°34'510.9
2018-Oct-14 09:03N 32°10' W 117°38'110.5
2018-Oct-14 09:00N 32°10' W 117°38'1810.8
2018-Oct-14 07:22N 31°56' W 117°52'3 9.0
2018-Oct-14 07:02N 31°53' W 117°52'8 4.7
2018-Oct-14 05:26N 31°48' W 117°46'3 7.4
2018-Oct-14 05:03N 31°48' W 117°49'0 7.5
2018-Oct-14 05:00N 31°48' W 117°50'4 7.3
2018-Oct-14 04:25N 31°49' W 117°55'4 7.4
2018-Oct-14 03:56N 31°49' W 117°59'8 2.9
2018-Oct-14 01:06N 31°42' W 117°54'653.5
2018-Oct-14 01:00N 31°36' W 117°54'635.1 210 / 21011.110.8 19.0 21.0
2018-Oct-14 00:49N 31°42' W 117°57'5 8.0
2018-Oct-14 00:09N 31°41' W 118°03'50 4.5
2018-Oct-13 13:00N 31°00' W 117°30'   260 / 181011.110.8 18.0 21.0
Track history (hours):
 
Tides and Currents Weather Stations Pressure Air Temp Water Temp Dewpoint Dewpoint Depression Visibility Wind Speed Wind Dir Waves Ship Positions

Norwegian Pearl

Last reported at 2018-Oct-22 20:56 UTC. Time now 2018-Oct-24 04:37 UTC.
Position N 27°10' W 115°47'.

Type: Ship. MMSI: 309653000.

Date/timePositionNaut miles runAvg speedWind from/ knotsBaromVisibWave heightAir tempDewpointWater temp
2018-Oct-22 20:56N 27°10' W 115°47'18420.5
2018-Oct-22 11:59N 30°08' W 116°42'2620.5
2018-Oct-22 10:43N 30°33' W 116°49'420.6
2018-Oct-22 10:30N 30°37' W 116°51'1020.8
2018-Oct-22 10:02N 30°46' W 116°54'121.0
2018-Oct-22 10:00N 30°47' W 116°54'1021.2
2018-Oct-22 09:31N 30°57' W 116°57'1021.4
2018-Oct-22 09:03N 31°06' W 117°01'121.3
2018-Oct-22 09:00N 31°07' W 117°01'1121.6
2018-Oct-22 08:30N 31°18' W 117°04'1021.6
2018-Oct-22 08:03N 31°27' W 117°08'121.4
2018-Oct-22 08:00N 31°28' W 117°08'1121.3
2018-Oct-22 07:30N 31°39' W 117°10'1021.3
2018-Oct-22 07:03N 31°48' W 117°13'121.0
2018-Oct-22 07:01N 31°49' W 117°13'1121.1
2018-Oct-22 06:30N 31°59' W 117°17'1021.3
2018-Oct-22 06:03N 32°08' W 117°20'120.9
2018-Oct-22 06:01N 32°09' W 117°20'1121.4
2018-Oct-22 05:30N 32°20' W 117°23'919.9
2018-Oct-22 05:04N 32°28' W 117°21'121.5
2018-Oct-22 05:01N 32°29' W 117°20'1019.8
2018-Oct-22 04:30N 32°38' W 117°14'6 0.6
2018-Oct-21 17:26N 32°43' W 117°10'0 0.0
2018-Oct-21 16:56N 32°43' W 117°10'0 0.0
2018-Oct-21 16:29N 32°43' W 117°10'0 0.0
2018-Oct-21 15:59N 32°43' W 117°10'0 0.0
2018-Oct-21 15:26N 32°43' W 117°10'0 0.0
2018-Oct-21 15:02N 32°43' W 117°10'0 0.0
2018-Oct-21 14:59N 32°43' W 117°10'0 0.0
2018-Oct-21 14:02N 32°43' W 117°10'0 0.0
2018-Oct-21 13:56N 32°43' W 117°10'0 0.0
2018-Oct-21 13:28N 32°43' W 117°10'0 0.2
2018-Oct-21 13:03N 32°43' W 117°11'0 2.0
2018-Oct-21 13:00N 32°43' W 117°11'3 6.5
2018-Oct-21 12:31N 32°41' W 117°14'510.2
2018-Oct-21 12:04N 32°37' W 117°14'110.8
2018-Oct-21 12:01N 32°36' W 117°15'612.3
2018-Oct-21 11:30N 32°31' W 117°19'614.3
2018-Oct-21 11:03N 32°26' W 117°23'115.0
2018-Oct-21 11:00N 32°25' W 117°24'713.7
2018-Oct-21 10:31N 32°18' W 117°23'614.2
2018-Oct-21 10:03N 32°12' W 117°21'114.3
2018-Oct-21 10:00N 32°11' W 117°20'714.3
2018-Oct-21 09:30N 32°05' W 117°17'714.7
2018-Oct-21 09:03N 31°58' W 117°15'115.1
2018-Oct-21 09:00N 31°58' W 117°15'714.8
2018-Oct-21 08:31N 31°51' W 117°12'715.7
2018-Oct-21 08:04N 31°44' W 117°10'116.4
2018-Oct-21 08:01N 31°43' W 117°10'816.4
2018-Oct-21 07:31N 31°35' W 117°08'716.2
2018-Oct-21 07:04N 31°28' W 117°06'116.0
2018-Oct-21 07:01N 31°27' W 117°06'815.8
2018-Oct-21 06:31N 31°19' W 117°04'715.6
2018-Oct-21 06:04N 31°12' W 117°02'115.9
2018-Oct-21 06:00N 31°12' W 117°02'815.8
2018-Oct-21 05:30N 31°04' W 116°59'715.6
2018-Oct-21 05:04N 30°57' W 116°57'115.5
2018-Oct-21 05:01N 30°57' W 116°57'815.6
2018-Oct-21 04:30N 30°49' W 116°55'716.4
2018-Oct-21 04:03N 30°42' W 116°52'120.2
2018-Oct-21 04:01N 30°41' W 116°52'1020.0
2018-Oct-21 03:31N 30°31' W 116°49'3220.1
2018-Oct-21 01:56N 30°01' W 116°39'920.1
2018-Oct-21 01:30N 29°52' W 116°36'919.8
2018-Oct-21 01:03N 29°44' W 116°34'219.8
2018-Oct-21 00:59N 29°42' W 116°33'1019.8
2018-Oct-21 00:29N 29°33' W 116°31'919.8
2018-Oct-21 00:03N 29°25' W 116°28'119.1
2018-Oct-21 00:00N 29°24' W 116°28'2116.3
2018-Oct-20 22:41N 29°03' W 116°22'616.6
2018-Oct-20 22:21N 28°58' W 116°20'916.5
2018-Oct-20 21:50N 28°49' W 116°17'516.7
2018-Oct-20 21:31N 28°44' W 116°16'816.9
2018-Oct-20 21:03N 28°36' W 116°13'8816.6
2018-Oct-20 15:44N 27°12' W 115°47'1616.6
2018-Oct-20 14:45N 26°57' W 115°39'53115.3
2018-Oct-19 04:00N 22°24' W 107°18'57 1.2 330 / 251009.610.8 27.0 30.0
2018-Oct-17 05:00N 21°48' W 108°06'78615.9 350 / 211010.410.8 27.0 29.0
2018-Oct-15 03:30N 32°01' W 117°17'921.0
2018-Oct-15 03:03N 32°10' W 117°20'121.4
2018-Oct-15 03:01N 32°11' W 117°20'1121.1
2018-Oct-15 02:30N 32°21' W 117°23'919.9
2018-Oct-15 02:03N 32°30' W 117°20'121.0
2018-Oct-15 02:00N 32°31' W 117°19'918.9
2018-Oct-15 01:31N 32°39' W 117°13'4 9.6
2018-Oct-15 01:03N 32°43' W 117°13'110.7
2018-Oct-15 01:01N 32°43' W 117°12'1 2.5
2018-Oct-15 00:30N 32°43' W 117°10'0 0.0
2018-Oct-15 00:03N 32°43' W 117°10'0 0.0
2018-Oct-15 00:00N 32°43' W 117°10'0 0.0
2018-Oct-14 23:24N 32°43' W 117°10'0 0.0
2018-Oct-14 23:03N 32°43' W 117°10'0 0.0
2018-Oct-14 23:00N 32°43' W 117°10'0 0.0
2018-Oct-14 22:30N 32°43' W 117°10'0 0.0
2018-Oct-14 22:03N 32°43' W 117°10'0 0.0
2018-Oct-14 21:57N 32°43' W 117°10'0 0.0
2018-Oct-14 21:30N 32°43' W 117°10'0 0.0
2018-Oct-14 21:03N 32°43' W 117°10'0 0.0
2018-Oct-14 21:00N 32°43' W 117°10'0 0.0
2018-Oct-14 20:30N 32°43' W 117°10'0 0.0
2018-Oct-14 20:03N 32°43' W 117°10'0 0.0
2018-Oct-14 20:00N 32°43' W 117°10'0 0.0
2018-Oct-14 19:30N 32°43' W 117°10'0 0.0
2018-Oct-14 19:03N 32°43' W 117°10'0 0.0
2018-Oct-14 18:57N 32°43' W 117°10'0 0.0
2018-Oct-14 18:27N 32°43' W 117°10'0 0.0
2018-Oct-14 17:54N 32°43' W 117°10'0 0.0
2018-Oct-14 17:30N 32°43' W 117°10'0 0.0
2018-Oct-14 17:03N 32°43' W 117°10'0 0.0
2018-Oct-14 16:57N 32°43' W 117°10'0 0.0
2018-Oct-14 16:30N 32°43' W 117°10'0 0.0
2018-Oct-14 16:03N 32°43' W 117°10'0 0.0
2018-Oct-14 16:00N 32°43' W 117°10'0 0.0
2018-Oct-14 15:18N 32°43' W 117°10'0 0.0
2018-Oct-14 15:03N 32°43' W 117°10'0 0.0
2018-Oct-14 14:57N 32°43' W 117°10'0 0.0
2018-Oct-14 14:03N 32°43' W 117°10'0 0.0
2018-Oct-14 14:00N 32°43' W 117°10'0 0.0
2018-Oct-14 13:30N 32°43' W 117°10'0 0.1
2018-Oct-14 13:03N 32°43' W 117°10'0 0.1
2018-Oct-14 13:00N 32°43' W 117°10'3 5.6
2018-Oct-14 12:30N 32°42' W 117°14'511.3
2018-Oct-14 12:03N 32°37' W 117°14'0 9.0
2018-Oct-14 12:00N 32°37' W 117°14'611.6
2018-Oct-14 11:30N 32°32' W 117°18'511.2
2018-Oct-14 11:03N 32°28' W 117°21'111.1
2018-Oct-14 11:00N 32°27' W 117°22'611.6
2018-Oct-14 10:30N 32°23' W 117°26'511.2
2018-Oct-14 10:03N 32°19' W 117°29'111.7
2018-Oct-14 10:01N 32°18' W 117°30'611.1
2018-Oct-14 09:30N 32°14' W 117°34'510.9
2018-Oct-14 09:03N 32°10' W 117°38'110.5
2018-Oct-14 09:00N 32°10' W 117°38'1810.8
2018-Oct-14 07:22N 31°56' W 117°52'3 9.0
2018-Oct-14 07:02N 31°53' W 117°52'8 4.7
2018-Oct-14 05:26N 31°48' W 117°46'3 7.4
2018-Oct-14 05:03N 31°48' W 117°49'0 7.5
2018-Oct-14 05:00N 31°48' W 117°50'4 7.3
2018-Oct-14 04:25N 31°49' W 117°55'4 7.4
2018-Oct-14 03:56N 31°49' W 117°59'8 2.9
2018-Oct-14 01:06N 31°42' W 117°54'653.5
2018-Oct-14 01:00N 31°36' W 117°54'635.1 210 / 21011.110.8 19.0 21.0
2018-Oct-14 00:49N 31°42' W 117°57'5 8.0
2018-Oct-14 00:09N 31°41' W 118°03'50 4.5
2018-Oct-13 13:00N 31°00' W 117°30'   260 / 181011.110.8 18.0 21.0

Dump ship's entire track history